Point Pleasant, NJ (08742)

3:16 AM EDT on October 22, 2014 (GMT -0400)
Jersey Shore Wx Center | Change Station
CLOSE
Current Station
Personal Weather Station
Location: Point Pleasant Beach, NJ
Elevation: 13 ft
Nearby Weather Stations

Elev 13 ft 40.09 °N, 74.05 °W | Updated 13 seconds ago

Overcast
Overcast
58.6 °F
Feels Like 58.6 °F
N
8.0
Wind Variable Wind from East
Gusts 11.0 mph

Today
High -- | Low -- °F
--% Chance of Precip.
Yesterday
High -- | Low -- °F
Precip. -- in
7:14 AM 6:06 PM
Waning Crescent, 3% visible
Pressure 29.84 in
Visibility 10.0 miles
Clouds Mostly Cloudy 900 ft
Mostly Cloudy 2300 ft
Mostly Cloudy 3400 ft
Dew Point 56 °F
Humidity 91%
Rainfall 0.04 in
Snow Depth Not available.
UV 0.0 out of 12
Pollen .30 out of 12
Air Quality Not available.
Flu Activity Sporadic
METAR KBLM 220655Z AUTO 02009KT 10SM BKN009 BKN023 BKN034 14/11 A2984 RMK AO1 LTG DSNT NE

More Conditions Fewer Conditions

Pressure 29.84 in
Visibility 10.0 miles
Clouds Mostly Cloudy 900 ft
Mostly Cloudy 2300 ft
Mostly Cloudy 3400 ft
Dew Point 56 °F
Humidity 91%
Rainfall 0.04 in
Snow Depth Not available.
UV 0.0 out of 12
Pollen .30 out of 12
Air Quality Not available.
Flu Activity Sporadic
METAR KBLM 220655Z AUTO 02009KT 10SM BKN009 BKN023 BKN034 14/11 A2984 RMK AO1 LTG DSNT NE

More Conditions Fewer Conditions

10-Day Weather Forecast

Almanac

Astronomy

Oct. 22, 2014 Rise Set
Actual Time 7:14 AM EDT 6:06 PM EDT
Civil Twilight 6:46 AM EDT 6:34 PM EDT
Nautical Twilight 6:15 AM EDT 7:05 PM EDT
Astronomical Twilight 5:43 AM EDT 7:37 PM EDT
Moon 5:53 AM EDT 5:31 PM EDT
Length of Visible Light 11h 47m
Length of Day
10h 52m
Tomorrow will be 2m 29s shorter.
Waning Crescent, 3% of the Moon is Illuminated
Today
Waning Crescent
Oct 23
New
Oct 30
First Quarter
Nov 6
Full
Nov 14
Last Quarter

Today's Extremes

State Highs State Lows

Community

WunderPhotos

Upload Photos

1,763,890 photos uploaded!

Nearby

Snow Depth

Station Depth Elevation
No new snow has been reported.

Earthquake Activity

City Distance Mag. Time & Date
No recent earthquake activity has been reported nearby.
Minimum magnitude displayed is 2.5.

Coastal Water Temperatures

Place Temperature
Atlantic City, NJ 64.0 °F

Nearby Weather Stations